Welcome to our new website - Welkom op onze vernieuwde website - Bienvenue sur notre nouveau site web - Willkommen auf unserer neuen Website
Check our progress frequently. Prüfen Sie unsere Fortschritte regelmäßig. Consultez notre progression fréquemment. Komt u straks nog eens terug


Hej. Vi har købt ny vejrstation, og er ved at bygge en helt ny vejrside.
Kom snart tilbage og følg udviklingen.
Du kan også komme med kommentarer eller evt. ønsker via "Kontakt" i bunden.



Webcam more information Webcam


Rain radar more information rain snow radar


Visit our other weather sites:

Template documentation
and downloads

And another site



Select another period ( hide this area )

Units Period Custom range Directly to
Metric English Both
Daily Weekly Monthly Yearly
use both date-selectors for a custom range
previous Day
With this date

WeatherUnderground graphs for this period ( click here )


Daily Summary for Thursday 27 February 2020
Time Temp. ( °C ) Dew pt. ( °C ) Wind ( km/h ) from Gust ( km/h ) Pressure ( hPa ) Humid.( % ) Rainrate ( cm ) Solar ( W/m2 )
High1,2 -1,7 9,7 SW ( 121/398 ) 16,1 999,9 88 - 265
Average-0,8 -3,2 3,6 NNW #32/111 5,7 999,5 84 - 82 #26/111
Low-2,1 -4,2 -   0,0 998,9 79 -  
Daily Tabular details for Thursday 27 February 2020
Time Temp. ( °C ) Dew pt. ( °C ) Wind ( km/h ) from Gust ( km/h ) Pressure ( hPa ) Humid.( % ) Rainrate ( cm ) Solar ( W/m2 )
00:00 0,8 -2,4   Calm 1,6 998,9 79 - -
00:05 0,7 -2,5 1,4 NNW 3,2 998,9 79 - -
00:10 0,7 -2,5 1,4 NNW 4,8 999,2 79 - -
00:15 0,7 -2,4   Calm 3,2 998,9 80 - -
00:20 0,6 -2,5 1,4 NNW 3,2 998,9 80 - -
00:25 0,6 -2,3 1,4 NNW 3,2 999,2 81 - -
00:30 0,6 -2,3 3,2 NNW 3,2 999,2 81 - -
00:35 0,5 -2,4   Calm   998,9 81 - -
00:40 0,4 -2,5 3,2 NNW 4,8 999,2 81 - -
00:45 0,4 -2,5 3,2 NNW 3,2 998,9 81 - -
00:50 0,3 -2,4 1,4 NNW 4,8 999,2 82 - -
00:55 0,3 -2,4   Calm 4,8 998,9 82 - -
01:00 0,2 -2,5 1,4 NNW 3,2 998,9 82 - -
01:05 0,1 -2,6 6,4 North 11,3 998,9 82 - -
01:10 0,1 -2,6 1,4 North 4,8 999,2 82 - -
01:15 0,1 -2,6 3,2 North 4,8 999,2 82 - -
01:20 0,0 -2,9   Calm 1,6 999,2 81 - -
01:25 0,0 -2,7 3,2 North 3,2 999,2 82 - -
01:30 0,0 -2,7   Calm 1,6 999,2 82 - -
01:35 0,1 -2,6   Calm   999,2 82 - -
01:40 0,0 -2,7 1,4 North 3,2 999,2 82 - -
01:45 0,0 -2,7   Calm 1,6 999,2 82 - -
01:50 -0,1 -2,8   Calm 1,6 999,2 82 - -
01:55 -0,1 -3,0   Calm   999,2 81 - -
02:00 -0,1 -3,0   Calm   999,2 81 - -
02:05 -0,2 -3,1 3,2 North 4,8 999,5 81 - -
02:10 -0,3 -3,2 3,2 North 4,8 999,5 81 - -
02:15 -0,3 -3,2 3,2 North 4,8 999,5 81 - -
02:20 -0,4 -3,3 3,2 North 4,8 999,5 81 - -
02:25 -0,5 -3,4 1,4 North 3,2 999,5 81 - -
02:30 -0,6 -3,5 1,4 North 3,2 999,5 81 - -
02:35 -0,7 -3,6 4,7 North 4,8 999,5 81 - -
02:40 -0,8 -3,5 4,7 North 4,8 999,5 82 - -
02:45 -0,8 -3,5 3,2 NNW 6,4 999,5 82 - -
02:50 -0,9 -3,6 4,7 NNW 6,4 999,5 82 - -
02:55 -1,0 -3,7 3,2 NNW 4,8 999,5 82 - -
03:00 -1,1 -3,6 4,7 NNW 4,8 999,5 83 - -
03:05 -1,1 -3,8 3,2 NNW 4,8 999,5 82 - -
03:10 -1,2 -3,7 3,2 NNW 4,8 999,5 83 - -
03:15 -1,3 -3,8 1,4 NNW 4,8 999,5 83 - -
03:20 -1,3 -3,8 3,2 NNW 4,8 999,5 83 - -
03:25 -1,4 -3,9 3,2 NNW 4,8 999,5 83 - -
03:30 -1,4 -3,9 4,7 NNW 4,8 999,5 83 - -
03:35 -1,5 -4,0 4,7 NNW 4,8 999,5 83 - -
03:40 -1,6 -4,1 4,7 NNW 4,8 999,5 83 - -
03:45 -1,6 -3,9 4,7 NNW 6,4 999,5 84 - -
03:50 -1,7 -4,0 3,2 NNW 6,4 999,5 84 - -
03:55 -1,7 -4,0 4,7 NNW 6,4 999,5 84 - -
04:00 -1,8 -4,1 4,7 NNW 6,4 999,5 84 - -
04:05 -1,8 -4,1 3,2 NNW 4,8 999,5 84 - -
04:10 -1,8 -4,0 3,2 NNW 4,8 999,5 85 - -
04:15 -1,8 -4,0 3,2 NNW 4,8 999,5 85 - -
04:20 -1,9 -4,1 3,2 NNW 4,8 999,5 85 - -
04:25 -1,9 -4,1 1,4 NNW 3,2 999,5 85 - -
04:30 -1,9 -4,1 4,7 NNW 6,4 999,9 85 - -
04:35 -2,0 -4,2 3,2 NNW 6,4 999,9 85 - -
04:40 -2,0 -4,2 4,7 NW 6,4 999,9 85 - -
04:45 -2,0 -4,2 4,7 NW 6,4 999,9 85 - -
04:50 -2,0 -4,0 4,7 NW 6,4 999,5 86 - -
04:55 -2,0 -4,0 4,7 NW 6,4 999,5 86 - -
05:00 -2,0 -4,0 3,2 NW 4,8 999,9 86 - -
05:05 -2,0 -4,0 4,7 NW 6,4 999,5 86 - -
05:10 -2,1 -4,1 3,2 NW 4,8 999,9 86 - -
05:15 -2,1 -4,1 3,2 NW 4,8 999,9 86 - -
05:20 -2,0 -4,0 3,2 NW 4,8 999,9 86 - -
05:25 -2,1 -4,1 1,4 NW 3,2 999,9 86 - -
05:30 -2,0 -4,0 1,4 NW 1,6 999,5 86 - -
05:35 -2,1 -4,1 1,4 NW 3,2 999,5 86 - -
05:40 -2,0 -4,0 1,4 NW 3,2 999,5 86 - -
05:45 -2,0 -4,0 1,4 NW 3,2 999,5 86 - -
05:50 -2,0 -4,0 3,2 NW 4,8 999,5 86 - -
05:55 -2,0 -4,0 3,2 NW 3,2 999,5 86 - -
06:00 -1,9 -3,9 3,2 NW 4,8 999,5 86 - -
06:05 -1,9 -3,8 4,7 NW 4,8 999,5 87 - -
06:10 -1,8 -3,7 3,2 NW 4,8 999,5 87 - -
06:15 -1,8 -3,7 1,4 NW 4,8 999,5 87 - -
06:20 -1,8 -3,7 4,7 NW 6,4 999,5 87 - -
06:25 -1,8 -3,7 3,2 NW 4,8 999,5 87 - -
06:30 -1,7 -3,6 3,2 NW 4,8 999,5 87 - -
06:35 -1,6 -3,5 4,7 NW 6,4 999,5 87 - -
06:40 -1,5 -3,4 3,2 NW 4,8 999,5 87 - -
06:45 -1,4 -3,3 4,7 NW 4,8 999,5 87 - -
06:50 -1,4 -3,3 3,2 NW 4,8 999,5 87 - -
06:55 -1,3 -3,2 3,2 NW 4,8 999,5 87 - -
07:00 -1,2 -3,1 4,7 NW 4,8 999,5 87 - -
07:05 -1,2 -3,1 3,2 NW 6,4 999,5 87 - 5
07:10 -1,1 -3,0 6,4 SW 9,7 999,5 87 - 9
07:15 -1,0 -2,9 4,7 SW 8,0 999,5 87 - 11
07:20 -0,9 -2,8 3,2 SW 8,0 999,5 87 - 11
07:25 -0,9 -2,8 3,2 SW 6,4 999,5 87 - 12
07:30 -0,8 -2,5 4,7 SW 8,0 999,5 88 - 12
07:35 -0,8 -2,5 3,2 SW 6,4 999,5 88 - 14
07:40 -0,7 -2,4 4,7 SW 8,0 999,5 88 - 25
07:45 -0,7 -2,4 6,4 SW 8,0 999,5 88 - 26
07:50 -0,6 -2,3 4,7 SW 9,7 999,9 88 - 32
07:55 -0,5 -2,2 6,4 SW 12,9 999,5 88 - 35
08:00 -0,5 -2,2 4,7 WSW 12,9 999,9 88 - 33
08:05 -0,5 -2,2 7,9 SW 9,7 999,9 88 - 30
08:10 -0,5 -2,2 7,9 SW 8,0 999,9 88 - 33
08:15 -0,5 -2,2 6,4 SW 8,0 999,9 88 - 33
08:20 -0,4 -2,1 9,7 SW 9,7 999,9 88 - 40
08:25 -0,3 -2,0 9,7 SW 11,3 999,9 88 - 39
08:30 -0,1 -2,0 6,4 SW 9,7 999,5 87 - 156
08:35 0,1 -2,0 4,7 SW 11,3 999,9 86 - 167
08:40 0,2 -2,0 6,4 WSW 8,0 999,9 85 - 128
08:45 0,4 -2,0 9,7 WSW 12,9 999,9 84 - 116
08:50 0,5 -2,1 4,7 SW 12,9 999,9 83 - 195
08:55 0,7 -1,9 7,9 WSW 11,3 999,9 83 - 221
09:00 0,8 -1,9 7,9 SW 14,5 999,9 82 - 237
09:05 0,9 -1,8 6,4 WSW 12,9 999,9 82 - 248
09:10 1,2 -1,7 7,9 SW 16,1 999,9 81 - 265
Daily Summary for Thursday 27 February 2020
Time Temp. ( °C ) Dew pt. ( °C ) Wind ( km/h ) from Gust ( km/h ) Pressure ( hPa ) Humid.( % ) Rainrate ( cm ) Solar ( W/m2 )
High1,2 -1,7 9,7 SW ( 121/398 ) 16,1 999,9 88 - 265
Average-0,8 -3,2 3,6 NNW #32/111 5,7 999,5 84 - 82 #26/111
Low-2,1 -4,2 -   0,0 998,9 79 -  
Daily Tabular details for Thursday 27 February 2020
Time Temp. ( °C ) Dew pt. ( °C ) Wind ( km/h ) from Gust ( km/h ) Pressure ( hPa ) Humid.( % ) Rainrate ( cm ) Solar ( W/m2 )
00:00 0,8 -2,4   Calm 1,6 998,9 79 - -
00:05 0,7 -2,5 1,4 NNW 3,2 998,9 79 - -
00:10 0,7 -2,5 1,4 NNW 4,8 999,2 79 - -
00:15 0,7 -2,4   Calm 3,2 998,9 80 - -
00:20 0,6 -2,5 1,4 NNW 3,2 998,9 80 - -
00:25 0,6 -2,3 1,4 NNW 3,2 999,2 81 - -
00:30 0,6 -2,3 3,2 NNW 3,2 999,2 81 - -
00:35 0,5 -2,4   Calm   998,9 81 - -
00:40 0,4 -2,5 3,2 NNW 4,8 999,2 81 - -
00:45 0,4 -2,5 3,2 NNW 3,2 998,9 81 - -
00:50 0,3 -2,4 1,4 NNW 4,8 999,2 82 - -
00:55 0,3 -2,4   Calm 4,8 998,9 82 - -
01:00 0,2 -2,5 1,4 NNW 3,2 998,9 82 - -
01:05 0,1 -2,6 6,4 North 11,3 998,9 82 - -
01:10 0,1 -2,6 1,4 North 4,8 999,2 82 - -
01:15 0,1 -2,6 3,2 North 4,8 999,2 82 - -
01:20 0,0 -2,9   Calm 1,6 999,2 81 - -
01:25 0,0 -2,7 3,2 North 3,2 999,2 82 - -
01:30 0,0 -2,7   Calm 1,6 999,2 82 - -
01:35 0,1 -2,6   Calm   999,2 82 - -
01:40 0,0 -2,7 1,4 North 3,2 999,2 82 - -
01:45 0,0 -2,7   Calm 1,6 999,2 82 - -
01:50 -0,1 -2,8   Calm 1,6 999,2 82 - -
01:55 -0,1 -3,0   Calm   999,2 81 - -
02:00 -0,1 -3,0   Calm   999,2 81 - -
02:05 -0,2 -3,1 3,2 North 4,8 999,5 81 - -
02:10 -0,3 -3,2 3,2 North 4,8 999,5 81 - -
02:15 -0,3 -3,2 3,2 North 4,8 999,5 81 - -
02:20 -0,4 -3,3 3,2 North 4,8 999,5 81 - -
02:25 -0,5 -3,4 1,4 North 3,2 999,5 81 - -
02:30 -0,6 -3,5 1,4 North 3,2 999,5 81 - -
02:35 -0,7 -3,6 4,7 North 4,8 999,5 81 - -
02:40 -0,8 -3,5 4,7 North 4,8 999,5 82 - -
02:45 -0,8 -3,5 3,2 NNW 6,4 999,5 82 - -
02:50 -0,9 -3,6 4,7 NNW 6,4 999,5 82 - -
02:55 -1,0 -3,7 3,2 NNW 4,8 999,5 82 - -
03:00 -1,1 -3,6 4,7 NNW 4,8 999,5 83 - -
03:05 -1,1 -3,8 3,2 NNW 4,8 999,5 82 - -
03:10 -1,2 -3,7 3,2 NNW 4,8 999,5 83 - -
03:15 -1,3 -3,8 1,4 NNW 4,8 999,5 83 - -
03:20 -1,3 -3,8 3,2 NNW 4,8 999,5 83 - -
03:25 -1,4 -3,9 3,2 NNW 4,8 999,5 83 - -
03:30 -1,4 -3,9 4,7 NNW 4,8 999,5 83 - -
03:35 -1,5 -4,0 4,7 NNW 4,8 999,5 83 - -
03:40 -1,6 -4,1 4,7 NNW 4,8 999,5 83 - -
03:45 -1,6 -3,9 4,7 NNW 6,4 999,5 84 - -
03:50 -1,7 -4,0 3,2 NNW 6,4 999,5 84 - -
03:55 -1,7 -4,0 4,7 NNW 6,4 999,5 84 - -
04:00 -1,8 -4,1 4,7 NNW 6,4 999,5 84 - -
04:05 -1,8 -4,1 3,2 NNW 4,8 999,5 84 - -
04:10 -1,8 -4,0 3,2 NNW 4,8 999,5 85 - -
04:15 -1,8 -4,0 3,2 NNW 4,8 999,5 85 - -
04:20 -1,9 -4,1 3,2 NNW 4,8 999,5 85 - -
04:25 -1,9 -4,1 1,4 NNW 3,2 999,5 85 - -
04:30 -1,9 -4,1 4,7 NNW 6,4 999,9 85 - -
04:35 -2,0 -4,2 3,2 NNW 6,4 999,9 85 - -
04:40 -2,0 -4,2 4,7 NW 6,4 999,9 85 - -
04:45 -2,0 -4,2 4,7 NW 6,4 999,9 85 - -
04:50 -2,0 -4,0 4,7 NW 6,4 999,5 86 - -
04:55 -2,0 -4,0 4,7 NW 6,4 999,5 86 - -
05:00 -2,0 -4,0 3,2 NW 4,8 999,9 86 - -
05:05 -2,0 -4,0 4,7 NW 6,4 999,5 86 - -
05:10 -2,1 -4,1 3,2 NW 4,8 999,9 86 - -
05:15 -2,1 -4,1 3,2 NW 4,8 999,9 86 - -
05:20 -2,0 -4,0 3,2 NW 4,8 999,9 86 - -
05:25 -2,1 -4,1 1,4 NW 3,2 999,9 86 - -
05:30 -2,0 -4,0 1,4 NW 1,6 999,5 86 - -
05:35 -2,1 -4,1 1,4 NW 3,2 999,5 86 - -
05:40 -2,0 -4,0 1,4 NW 3,2 999,5 86 - -
05:45 -2,0 -4,0 1,4 NW 3,2 999,5 86 - -
05:50 -2,0 -4,0 3,2 NW 4,8 999,5 86 - -
05:55 -2,0 -4,0 3,2 NW 3,2 999,5 86 - -
06:00 -1,9 -3,9 3,2 NW 4,8 999,5 86 - -
06:05 -1,9 -3,8 4,7 NW 4,8 999,5 87 - -
06:10 -1,8 -3,7 3,2 NW 4,8 999,5 87 - -
06:15 -1,8 -3,7 1,4 NW 4,8 999,5 87 - -
06:20 -1,8 -3,7 4,7 NW 6,4 999,5 87 - -
06:25 -1,8 -3,7 3,2 NW 4,8 999,5 87 - -
06:30 -1,7 -3,6 3,2 NW 4,8 999,5 87 - -
06:35 -1,6 -3,5 4,7 NW 6,4 999,5 87 - -
06:40 -1,5 -3,4 3,2 NW 4,8 999,5 87 - -
06:45 -1,4 -3,3 4,7 NW 4,8 999,5 87 - -
06:50 -1,4 -3,3 3,2 NW 4,8 999,5 87 - -
06:55 -1,3 -3,2 3,2 NW 4,8 999,5 87 - -
07:00 -1,2 -3,1 4,7 NW 4,8 999,5 87 - -
07:05 -1,2 -3,1 3,2 NW 6,4 999,5 87 - 5
07:10 -1,1 -3,0 6,4 SW 9,7 999,5 87 - 9
07:15 -1,0 -2,9 4,7 SW 8,0 999,5 87 - 11
07:20 -0,9 -2,8 3,2 SW 8,0 999,5 87 - 11
07:25 -0,9 -2,8 3,2 SW 6,4 999,5 87 - 12
07:30 -0,8 -2,5 4,7 SW 8,0 999,5 88 - 12
07:35 -0,8 -2,5 3,2 SW 6,4 999,5 88 - 14
07:40 -0,7 -2,4 4,7 SW 8,0 999,5 88 - 25
07:45 -0,7 -2,4 6,4 SW 8,0 999,5 88 - 26
07:50 -0,6 -2,3 4,7 SW 9,7 999,9 88 - 32
07:55 -0,5 -2,2 6,4 SW 12,9 999,5 88 - 35
08:00 -0,5 -2,2 4,7 WSW 12,9 999,9 88 - 33
08:05 -0,5 -2,2 7,9 SW 9,7 999,9 88 - 30
08:10 -0,5 -2,2 7,9 SW 8,0 999,9 88 - 33
08:15 -0,5 -2,2 6,4 SW 8,0 999,9 88 - 33
08:20 -0,4 -2,1 9,7 SW 9,7 999,9 88 - 40
08:25 -0,3 -2,0 9,7 SW 11,3 999,9 88 - 39
08:30 -0,1 -2,0 6,4 SW 9,7 999,5 87 - 156
08:35 0,1 -2,0 4,7 SW 11,3 999,9 86 - 167
08:40 0,2 -2,0 6,4 WSW 8,0 999,9 85 - 128
08:45 0,4 -2,0 9,7 WSW 12,9 999,9 84 - 116
08:50 0,5 -2,1 4,7 SW 12,9 999,9 83 - 195
08:55 0,7 -1,9 7,9 WSW 11,3 999,9 83 - 221
09:00 0,8 -1,9 7,9 SW 14,5 999,9 82 - 237
09:05 0,9 -1,8 6,4 WSW 12,9 999,9 82 - 248
09:10 1,2 -1,7 7,9 SW 16,1 999,9 81 - 265

Download your copy of this data-set  here

Our weather-data as stored at Weather Underground. Script developed by Jim McMurry. Adapted for the template by Leuven-Template.eu

You find our weather info also at:

European Weather Network

Weather Underground

European Weather Network

Equipment we use:

Weather-station
Davis VP2

Weather-program
Weather Display

Davis VP2

Weather Display



Hej. Vi har købt ny vejrstation, og er ved at bygge en helt ny vejrside.
Kom snart tilbage og følg udviklingen.
Du kan også komme med kommentarer eller evt. ønsker via "Kontakt" i bunden.